createdAt,value
2018-06-08T00:00:24.433Z,33.37
2018-06-08T00:02:52.926Z,35.17
2018-06-08T00:05:21.448Z,33.97
2018-06-08T00:07:49.914Z,35.47
2018-06-08T00:10:18.398Z,32.37
2018-06-08T00:12:46.847Z,31.47
2018-06-08T00:15:15.349Z,30.03
2018-06-08T00:17:43.842Z,26.53
2018-06-08T00:20:12.298Z,26.20
2018-06-08T00:22:40.790Z,26.03
2018-06-08T00:25:09.328Z,26.73
2018-06-08T00:27:37.777Z,28.47
2018-06-08T00:30:06.378Z,28.30
2018-06-08T00:32:34.850Z,27.57
2018-06-08T00:35:03.408Z,27.93
2018-06-08T00:37:31.939Z,28.67
2018-06-08T00:40:00.514Z,26.63
2018-06-08T00:42:29.021Z,24.93
2018-06-08T00:44:59.726Z,25.23
2018-06-08T00:47:28.218Z,25.13
2018-06-08T00:49:56.735Z,24.47
2018-06-08T00:52:25.257Z,25.90
2018-06-08T00:54:53.729Z,25.03
2018-06-08T00:57:22.202Z,25.33
2018-06-08T00:59:50.719Z,25.67
2018-06-08T01:02:19.191Z,25.90
2018-06-08T01:04:47.642Z,26.00
2018-06-08T01:07:16.147Z,26.13
2018-06-08T01:09:44.634Z,25.37
2018-06-08T01:12:13.131Z,24.50
2018-06-08T01:14:41.630Z,24.80
2018-06-08T01:17:10.114Z,25.93
2018-06-08T01:19:38.682Z,27.23
2018-06-08T01:22:07.182Z,26.97
2018-06-08T01:24:35.688Z,26.43
2018-06-08T01:27:04.243Z,27.63
2018-06-08T01:29:32.733Z,26.87
2018-06-08T01:32:01.200Z,26.20
2018-06-08T01:34:29.619Z,27.67
2018-06-08T01:36:58.122Z,28.93
2018-06-08T01:39:26.578Z,28.67
2018-06-08T01:41:55.166Z,30.43
2018-06-08T01:44:23.649Z,27.90
2018-06-08T01:46:52.205Z,29.60
2018-06-08T01:49:20.682Z,28.47
2018-06-08T01:51:49.184Z,29.87
2018-06-08T01:54:17.619Z,30.97
2018-06-08T01:56:46.581Z,31.47
2018-06-08T01:59:15.076Z,29.73
2018-06-08T02:01:43.562Z,29.70
2018-06-08T02:04:12.050Z,30.83
2018-06-08T02:06:40.513Z,30.87
2018-06-08T02:09:08.974Z,32.77
2018-06-08T02:11:37.422Z,33.00
2018-06-08T02:14:05.887Z,31.27
2018-06-08T02:16:34.318Z,32.57
2018-06-08T02:19:02.843Z,31.93
2018-06-08T02:21:31.719Z,31.33
2018-06-08T02:24:00.196Z,32.70
2018-06-08T02:26:28.732Z,33.23
2018-06-08T02:28:57.217Z,34.10
2018-06-08T02:31:25.707Z,35.37
2018-06-08T02:33:54.194Z,35.10
2018-06-08T02:36:22.735Z,35.33
2018-06-08T02:38:51.351Z,36.70
2018-06-08T02:41:20.035Z,37.33
2018-06-08T02:43:48.506Z,36.17
2018-06-08T02:46:18.023Z,38.20
2018-06-08T02:48:46.490Z,36.07
2018-06-08T02:51:14.985Z,36.83
2018-06-08T02:53:44.183Z,36.47
2018-06-08T02:56:12.665Z,36.27
2018-06-08T02:58:41.114Z,39.73
2018-06-08T03:01:09.619Z,39.30
2018-06-08T03:03:38.115Z,40.37
2018-06-08T03:06:06.836Z,39.97
2018-06-08T03:08:35.314Z,38.77
2018-06-08T03:11:03.793Z,38.33
2018-06-08T03:13:32.238Z,39.50
2018-06-08T03:16:00.756Z,39.93
2018-06-08T03:18:29.233Z,40.70
2018-06-08T03:20:57.686Z,40.87
2018-06-08T03:23:26.184Z,41.43
2018-06-08T03:25:54.623Z,41.27
2018-06-08T03:28:23.078Z,41.33
2018-06-08T03:30:51.204Z,41.20
2018-06-08T03:33:19.620Z,40.43
2018-06-08T03:35:48.123Z,41.67
2018-06-08T03:38:16.538Z,43.33
2018-06-08T03:40:45.306Z,40.87
2018-06-08T03:43:13.782Z,45.30
2018-06-08T03:45:41.922Z,46.13
2018-06-08T03:48:10.406Z,44.83
2018-06-08T03:50:38.860Z,43.57
2018-06-08T03:53:07.365Z,46.43
2018-06-08T03:55:35.855Z,46.93
2018-06-08T03:58:04.318Z,43.47
2018-06-08T04:00:32.791Z,45.00
2018-06-08T04:03:01.278Z,45.20
2018-06-08T04:05:29.734Z,42.53
2018-06-08T04:07:58.315Z,42.03
2018-06-08T04:10:26.786Z,43.53
2018-06-08T04:12:55.273Z,42.03
2018-06-08T04:15:23.795Z,43.93
2018-06-08T04:17:52.274Z,42.83
2018-06-08T04:20:20.763Z,40.57
2018-06-08T04:22:49.282Z,44.30
2018-06-08T04:25:17.818Z,41.57
2018-06-08T04:27:46.266Z,41.23
2018-06-08T04:30:14.709Z,39.83
2018-06-08T04:32:43.199Z,39.63
2018-06-08T04:35:11.634Z,39.53
2018-06-08T04:37:40.066Z,41.97
2018-06-08T04:40:08.642Z,42.37
2018-06-08T04:42:37.146Z,41.03
2018-06-08T04:45:05.632Z,45.30
2018-06-08T04:47:34.139Z,43.03
2018-06-08T04:50:03.258Z,41.77
2018-06-08T04:52:31.778Z,41.57
2018-06-08T04:55:00.305Z,43.70
2018-06-08T04:57:28.791Z,42.27
2018-06-08T04:59:57.251Z,42.43
2018-06-08T05:02:25.745Z,45.03
2018-06-08T05:04:54.222Z,44.77
2018-06-08T05:07:22.929Z,44.47
2018-06-08T05:09:51.512Z,44.80
2018-06-08T05:12:19.980Z,43.40
2018-06-08T05:14:48.889Z,44.73
2018-06-08T05:17:17.384Z,46.97
2018-06-08T05:19:45.882Z,45.97
2018-06-08T05:22:14.379Z,45.87
2018-06-08T05:24:43.298Z,45.17
2018-06-08T05:27:11.860Z,45.37
2018-06-08T05:29:41.868Z,47.20
2018-06-08T05:32:10.684Z,43.10
2018-06-08T05:34:39.223Z,43.60
2018-06-08T05:37:07.728Z,45.80
2018-06-08T05:39:36.198Z,43.87
2018-06-08T05:42:04.721Z,43.37
2018-06-08T05:44:33.546Z,42.90
2018-06-08T05:47:02.514Z,44.00
2018-06-08T05:49:31.072Z,44.97
2018-06-08T05:51:59.552Z,45.23
2018-06-08T05:54:28.032Z,45.80
2018-06-08T05:56:56.494Z,47.07
2018-06-08T05:59:24.988Z,48.60
2018-06-08T06:01:53.557Z,48.20
2018-06-08T06:04:22.079Z,51.20
2018-06-08T06:06:50.540Z,48.37
2018-06-08T06:09:19.027Z,47.97
2018-06-08T06:11:47.647Z,49.70
2018-06-08T06:14:16.131Z,50.93
2018-06-08T06:16:44.642Z,50.50
2018-06-08T06:19:13.146Z,50.90
2018-06-08T06:21:41.674Z,48.30
2018-06-08T06:24:10.814Z,50.50
2018-06-08T06:26:39.310Z,52.07
2018-06-08T06:29:07.808Z,50.67
2018-06-08T06:31:36.606Z,55.43
2018-06-08T06:34:05.112Z,51.77
2018-06-08T06:36:33.574Z,48.93
2018-06-08T06:39:02.112Z,49.73
2018-06-08T06:41:30.591Z,49.73
2018-06-08T06:43:59.121Z,52.03
2018-06-08T06:46:27.573Z,53.60
2018-06-08T06:48:56.069Z,50.30
2018-06-08T06:51:24.594Z,50.57
2018-06-08T06:53:53.117Z,49.93
2018-06-08T06:56:21.623Z,52.23
2018-06-08T06:59:06.833Z,51.33
2018-06-08T07:01:35.398Z,49.80
2018-06-08T07:04:03.965Z,50.30
2018-06-08T07:06:32.542Z,48.50
2018-06-08T07:09:01.035Z,47.83
2018-06-08T07:11:29.535Z,48.87
2018-06-08T07:13:58.059Z,47.17
2018-06-08T07:16:26.875Z,48.87
2018-06-08T07:18:55.358Z,47.93
2018-06-08T07:21:23.887Z,48.70
2018-06-08T07:23:52.361Z,49.10
2018-06-08T07:26:20.558Z,49.43
2018-06-08T07:28:49.066Z,51.97
2018-06-08T07:31:17.574Z,51.13
2018-06-08T07:33:46.074Z,49.67
2018-06-08T07:36:14.548Z,49.43
2018-06-08T07:38:43.094Z,50.40
2018-06-08T07:41:11.608Z,49.70
2018-06-08T07:43:40.114Z,49.30
2018-06-08T07:46:08.670Z,49.83
2018-06-08T07:48:37.456Z,50.97
2018-06-08T07:51:06.163Z,49.77
2018-06-08T07:53:34.674Z,50.70
2018-06-08T07:56:03.191Z,53.63
2018-06-08T07:58:31.661Z,54.77
2018-06-08T08:00:59.825Z,53.60
2018-06-08T08:03:28.349Z,55.00
2018-06-08T08:05:56.830Z,53.23
2018-06-08T08:08:25.269Z,54.47
2018-06-08T08:10:53.832Z,52.40
2018-06-08T08:13:22.331Z,58.13
2018-06-08T08:15:50.814Z,55.80
2018-06-08T08:18:19.282Z,63.57
2018-06-08T08:20:47.770Z,61.83
2018-06-08T08:23:16.546Z,61.10
2018-06-08T08:25:45.012Z,62.13
2018-06-08T08:28:13.527Z,63.00
2018-06-08T08:30:41.991Z,64.07
2018-06-08T08:33:10.486Z,63.63
2018-06-08T08:35:39.007Z,68.30
2018-06-08T08:38:07.479Z,64.90
2018-06-08T08:40:36.011Z,60.83
2018-06-08T08:43:04.499Z,64.23
2018-06-08T08:45:32.964Z,69.30
2018-06-08T08:48:01.427Z,69.43
2018-06-08T08:50:29.922Z,70.00
2018-06-08T08:52:58.397Z,67.50
2018-06-08T08:55:26.862Z,64.53
2018-06-08T08:57:55.351Z,72.40
2018-06-08T09:00:23.819Z,86.10
2018-06-08T09:02:52.302Z,94.97
2018-06-08T09:05:20.837Z,95.07
2018-06-08T09:07:49.883Z,90.23
2018-06-08T09:10:18.363Z,96.30
2018-06-08T09:12:46.900Z,104.43
2018-06-08T09:15:15.375Z,95.40
2018-06-08T09:17:44.086Z,101.97
2018-06-08T09:20:12.637Z,98.63
2018-06-08T09:22:41.178Z,92.27
2018-06-08T09:25:09.640Z,90.63
2018-06-08T09:27:38.490Z,85.50
2018-06-08T09:30:07.439Z,88.97
2018-06-08T09:32:36.045Z,88.93
2018-06-08T09:35:04.610Z,92.33
2018-06-08T09:37:33.173Z,95.83
2018-06-08T09:40:01.764Z,95.63
2018-06-08T09:42:30.206Z,93.37
2018-06-08T09:44:58.735Z,86.00
2018-06-08T09:47:27.222Z,77.70
2018-06-08T09:49:56.031Z,75.77
2018-06-08T09:52:24.545Z,87.07
2018-06-08T09:54:53.048Z,80.87
2018-06-08T09:57:21.958Z,87.37
2018-06-08T09:59:50.442Z,79.17
2018-06-08T10:02:19.285Z,77.97
2018-06-08T10:04:47.742Z,70.73
2018-06-08T10:07:16.229Z,69.50
2018-06-08T10:09:44.727Z,64.33
2018-06-08T10:12:13.204Z,48.47
2018-06-08T10:14:41.706Z,51.57
2018-06-08T10:17:10.230Z,49.10
2018-06-08T10:19:39.080Z,48.83
2018-06-08T10:22:07.595Z,51.77
2018-06-08T10:24:36.114Z,48.00
2018-06-08T10:27:04.286Z,45.03
2018-06-08T10:29:32.788Z,46.07
2018-06-08T10:32:01.702Z,45.30
2018-06-08T10:34:30.190Z,49.20
2018-06-08T10:36:58.726Z,47.00
2018-06-08T10:39:27.390Z,49.03
2018-06-08T10:41:55.906Z,51.20
2018-06-08T10:44:24.864Z,45.87
2018-06-08T10:46:53.374Z,47.43
2018-06-08T10:49:21.870Z,56.70
2018-06-08T10:51:50.354Z,51.67
2018-06-08T10:54:18.848Z,51.37
2018-06-08T10:56:47.299Z,53.97
2018-06-08T10:59:15.779Z,49.90
2018-06-08T11:01:44.638Z,48.80
2018-06-08T11:04:13.440Z,44.73
2018-06-08T11:06:41.901Z,47.87
2018-06-08T11:09:10.398Z,46.67
2018-06-08T11:11:38.839Z,44.37
2018-06-08T11:14:07.307Z,49.07
2018-06-08T11:16:35.766Z,49.47
2018-06-08T11:19:04.262Z,44.37
2018-06-08T11:21:32.762Z,44.33
2018-06-08T11:24:01.227Z,44.80
2018-06-08T11:26:29.722Z,44.93
2018-06-08T11:28:58.186Z,42.90
2018-06-08T11:31:26.628Z,39.63
2018-06-08T11:33:55.095Z,42.40
2018-06-08T11:36:23.537Z,39.93
2018-06-08T11:38:52.014Z,39.80
2018-06-08T11:41:20.466Z,37.90
2018-06-08T11:43:49.039Z,36.13
2018-06-08T11:46:17.913Z,36.03
2018-06-08T11:48:46.362Z,35.33
2018-06-08T11:51:14.882Z,34.13
2018-06-08T11:53:43.373Z,36.90
2018-06-08T11:56:11.893Z,36.00
2018-06-08T11:58:40.367Z,36.20
2018-06-08T12:01:08.884Z,37.23
2018-06-08T12:03:37.353Z,36.43
2018-06-08T12:06:05.847Z,32.93
2018-06-08T12:08:34.345Z,33.17
2018-06-08T12:11:02.827Z,30.37
2018-06-08T12:13:31.309Z,32.27
2018-06-08T12:15:59.775Z,31.47
2018-06-08T12:18:28.281Z,31.03
2018-06-08T12:20:56.801Z,29.87
2018-06-08T12:23:25.331Z,28.40
2018-06-08T12:25:53.917Z,28.07
2018-06-08T12:28:22.444Z,27.70
2018-06-08T12:30:51.002Z,29.00
2018-06-08T12:33:19.502Z,27.63
2018-06-08T12:35:48.091Z,27.07
2018-06-08T12:38:16.635Z,25.33
2018-06-08T12:40:45.130Z,24.87
2018-06-08T12:43:13.646Z,24.07
2018-06-08T12:45:42.197Z,24.27
2018-06-08T12:48:10.688Z,24.93
2018-06-08T12:50:39.258Z,27.00
2018-06-08T12:53:07.777Z,25.90
2018-06-08T12:55:36.338Z,27.10
2018-06-08T12:58:04.868Z,28.67
2018-06-08T13:00:33.385Z,26.93
2018-06-08T13:03:01.879Z,27.73
2018-06-08T13:05:30.371Z,26.67
2018-06-08T13:07:58.905Z,29.20
2018-06-08T13:10:27.462Z,27.07
2018-06-08T13:12:56.043Z,27.07
2018-06-08T13:15:24.533Z,26.40
2018-06-08T13:17:53.426Z,24.47
2018-06-08T13:20:21.955Z,22.20
2018-06-08T13:22:50.495Z,23.40
2018-06-08T13:25:19.004Z,24.17
2018-06-08T13:27:47.535Z,24.50
2018-06-08T13:30:16.007Z,24.50
2018-06-08T13:32:44.818Z,24.50
2018-06-08T13:35:13.319Z,23.87
2018-06-08T13:37:41.803Z,24.93
2018-06-08T13:40:10.327Z,24.60
2018-06-08T13:42:38.893Z,23.03
2018-06-08T13:45:07.658Z,26.20
2018-06-08T13:47:35.870Z,25.20
2018-06-08T13:50:04.461Z,22.27
2018-06-08T13:52:32.962Z,23.40
2018-06-08T13:55:01.486Z,23.77
2018-06-08T13:57:30.055Z,22.60
2018-06-08T13:59:58.828Z,22.90
2018-06-08T14:02:27.334Z,23.70
2018-06-08T14:04:56.343Z,25.07
2018-06-08T14:07:24.910Z,23.87
2018-06-08T14:09:53.444Z,23.90
2018-06-08T14:12:22.022Z,22.87
2018-06-08T14:14:50.602Z,23.07
2018-06-08T14:17:19.280Z,26.17
2018-06-08T14:19:47.827Z,23.73
2018-06-08T14:22:16.358Z,24.73
2018-06-08T14:24:45.302Z,23.13
2018-06-08T14:27:14.159Z,21.60
2018-06-08T14:29:42.829Z,18.60
2018-06-08T14:32:11.365Z,20.40
2018-06-08T14:34:39.850Z,20.07
2018-06-08T14:37:08.366Z,18.20
2018-06-08T14:39:36.874Z,20.43
2018-06-08T14:42:05.394Z,18.50
2018-06-08T14:44:34.027Z,18.53
2018-06-08T14:47:02.620Z,19.60
2018-06-08T14:49:31.074Z,16.93
2018-06-08T14:51:59.601Z,19.73
2018-06-08T14:54:28.157Z,17.90
2018-06-08T14:56:56.647Z,19.83
2018-06-08T14:59:25.124Z,19.10
2018-06-08T15:01:53.626Z,18.77
2018-06-08T15:04:22.107Z,17.97
2018-06-08T15:06:50.623Z,17.57
2018-06-08T15:09:19.094Z,16.93
2018-06-08T15:11:47.629Z,17.17
2018-06-08T15:14:16.110Z,17.30
2018-06-08T15:16:44.633Z,17.27
2018-06-08T15:19:13.174Z,18.73
2018-06-08T15:21:41.658Z,18.50
2018-06-08T15:24:10.202Z,17.63
2018-06-08T15:26:38.748Z,18.57
2018-06-08T15:29:07.239Z,19.57
2018-06-08T15:31:35.719Z,20.07
2018-06-08T15:34:04.273Z,20.87
2018-06-08T15:36:32.730Z,20.70
2018-06-08T15:39:01.260Z,20.97
2018-06-08T15:41:29.738Z,19.17
2018-06-08T15:43:58.263Z,18.90
2018-06-08T15:46:26.778Z,20.47
2018-06-08T15:48:55.339Z,18.23
2018-06-08T15:51:23.895Z,17.87
2018-06-08T15:53:52.387Z,16.90
2018-06-08T15:56:20.918Z,16.17
2018-06-08T15:58:49.382Z,16.37
2018-06-08T16:01:17.915Z,17.67
2018-06-08T16:03:46.394Z,20.87
2018-06-08T16:06:14.911Z,20.80
2018-06-08T16:08:43.414Z,21.27
2018-06-08T16:11:11.903Z,21.57
2018-06-08T16:13:40.406Z,22.87
2018-06-08T16:16:09.003Z,23.83
2018-06-08T16:18:37.524Z,24.23
2018-06-08T16:21:06.046Z,25.97
2018-06-08T16:23:34.603Z,26.73
2018-06-08T16:26:03.126Z,27.50
2018-06-08T16:28:31.705Z,26.10
2018-06-08T16:31:00.336Z,27.27
2018-06-08T16:33:28.872Z,27.07
2018-06-08T16:35:57.362Z,27.00
2018-06-08T16:38:25.828Z,28.23
2018-06-08T16:41:00.930Z,29.47
2018-06-08T16:43:29.406Z,29.40
2018-06-08T16:45:57.904Z,30.63
2018-06-08T16:48:26.427Z,31.17
2018-06-08T16:50:54.947Z,31.30
2018-06-08T16:53:23.459Z,28.93
2018-06-08T16:55:52.408Z,31.30
2018-06-08T16:58:21.568Z,31.37
2018-06-08T17:00:50.579Z,31.77
2018-06-08T17:03:19.494Z,31.03
2018-06-08T17:05:48.065Z,33.00
2018-06-08T17:08:16.843Z,32.77
2018-06-08T17:10:45.443Z,32.63
2018-06-08T17:13:13.968Z,33.63
2018-06-08T17:15:43.348Z,34.33
2018-06-08T17:18:11.919Z,32.97
2018-06-08T17:20:40.753Z,34.20
2018-06-08T17:23:12.270Z,36.30
2018-06-08T17:25:41.195Z,34.70
2018-06-08T17:28:10.487Z,35.30
2018-06-08T17:30:39.188Z,35.47
2018-06-08T17:33:07.897Z,34.40
2018-06-08T17:35:36.532Z,38.43
2018-06-08T17:38:05.201Z,37.23
2018-06-08T17:40:33.841Z,37.63
2018-06-08T17:43:02.452Z,36.50
2018-06-08T17:45:31.073Z,38.07
2018-06-08T17:47:59.281Z,38.83
2018-06-08T17:50:27.900Z,38.20
2018-06-08T17:52:56.494Z,38.23
2018-06-08T17:55:25.065Z,36.97
2018-06-08T17:57:53.650Z,37.93
2018-06-08T18:00:22.304Z,35.43
2018-06-08T18:02:50.838Z,37.50
2018-06-08T18:05:19.475Z,37.30
2018-06-08T18:07:48.089Z,38.00
2018-06-08T18:10:16.782Z,35.07
2018-06-08T18:12:46.185Z,40.30
2018-06-08T18:15:14.807Z,37.57
2018-06-08T18:17:43.758Z,36.50
2018-06-08T18:20:12.348Z,37.67
2018-06-08T18:22:40.915Z,38.23
2018-06-08T18:25:09.631Z,38.80
2018-06-08T18:27:38.272Z,36.90
2018-06-08T18:30:06.927Z,39.90
2018-06-08T18:32:35.517Z,40.43
2018-06-08T18:35:04.139Z,39.53
2018-06-08T18:37:32.740Z,42.53
2018-06-08T18:40:01.395Z,40.90
2018-06-08T18:42:30.269Z,40.77
2018-06-08T18:44:58.939Z,42.83
2018-06-08T18:47:27.574Z,39.30
2018-06-08T18:49:56.085Z,42.73
2018-06-08T18:52:24.736Z,43.67
2018-06-08T18:54:53.300Z,43.40
2018-06-08T18:57:21.807Z,45.73
2018-06-08T18:59:50.424Z,46.80
2018-06-08T19:02:19.005Z,45.10
2018-06-08T19:04:47.577Z,46.97
2018-06-08T19:07:16.238Z,47.40
2018-06-08T19:09:44.826Z,47.07
2018-06-08T19:12:13.361Z,48.13
2018-06-08T19:14:41.984Z,48.20
2018-06-08T19:17:10.578Z,48.33
2018-06-08T19:19:39.157Z,47.07
2018-06-08T19:22:07.689Z,47.83
2018-06-08T19:24:36.365Z,49.30
2018-06-08T19:27:04.846Z,50.43
2018-06-08T19:29:33.376Z,48.70
2018-06-08T19:32:01.980Z,47.00
2018-06-08T19:34:30.515Z,45.23
2018-06-08T19:36:59.126Z,46.23
2018-06-08T19:39:27.737Z,48.90
2018-06-08T19:41:56.411Z,49.50
2018-06-08T19:44:25.053Z,49.10
2018-06-08T19:46:53.641Z,48.90
2018-06-08T19:49:22.220Z,51.07
2018-06-08T19:51:50.878Z,52.03
2018-06-08T19:54:19.396Z,52.70
2018-06-08T19:56:47.906Z,53.40
2018-06-08T19:59:16.426Z,52.43
2018-06-08T20:01:44.997Z,53.90
2018-06-08T20:04:13.529Z,53.40
2018-06-08T20:06:42.050Z,54.53
2018-06-08T20:09:10.640Z,53.03
2018-06-08T20:11:39.218Z,58.73
2018-06-08T20:14:07.774Z,60.17
2018-06-08T20:16:36.348Z,61.27
2018-06-08T20:19:04.941Z,62.27
2018-06-08T20:21:33.091Z,58.87
2018-06-08T20:24:01.662Z,63.30
2018-06-08T20:26:30.321Z,61.10
2018-06-08T20:28:58.949Z,65.83
2018-06-08T20:31:27.549Z,64.30
2018-06-08T20:33:56.153Z,60.23
2018-06-08T20:36:24.759Z,59.90
2018-06-08T20:38:53.322Z,60.00
2018-06-08T20:41:21.920Z,58.13
2018-06-08T20:43:50.472Z,60.07
2018-06-08T20:46:19.109Z,56.23
2018-06-08T20:48:47.646Z,57.93
2018-06-08T20:51:16.620Z,57.50
2018-06-08T20:53:45.455Z,59.87
2018-06-08T20:56:14.077Z,63.13
2018-06-08T20:58:43.492Z,61.33
2018-06-08T21:01:12.068Z,64.07
2018-06-08T21:03:40.901Z,63.57
2018-06-08T21:06:09.528Z,64.97
2018-06-08T21:08:38.437Z,64.63
2018-06-08T21:11:06.950Z,67.33
2018-06-08T21:13:35.507Z,69.30
2018-06-08T21:16:04.038Z,69.30
2018-06-08T21:18:32.582Z,70.73
2018-06-08T21:21:01.151Z,69.90
2018-06-08T21:23:29.711Z,69.17
2018-06-08T21:25:58.309Z,73.20
2018-06-08T21:28:26.921Z,73.93
2018-06-08T21:30:55.502Z,76.90
2018-06-08T21:33:24.160Z,76.60
2018-06-08T21:35:52.949Z,77.97
2018-06-08T21:38:21.860Z,80.50
2018-06-08T21:40:50.402Z,79.83
2018-06-08T21:43:18.930Z,81.77
2018-06-08T21:45:47.471Z,80.63
2018-06-08T21:48:16.054Z,81.07
2018-06-08T21:50:44.582Z,80.03
2018-06-08T21:53:13.111Z,81.53
2018-06-08T21:55:41.946Z,85.07
2018-06-08T21:58:10.489Z,86.00
2018-06-08T22:00:39.105Z,85.97
2018-06-08T22:03:07.617Z,80.83
2018-06-08T22:05:37.008Z,85.77
2018-06-08T22:08:05.542Z,82.53
2018-06-08T22:10:34.110Z,82.33
2018-06-08T22:13:02.924Z,80.43
2018-06-08T22:15:31.522Z,83.40
2018-06-08T22:18:00.310Z,83.17
2018-06-08T22:20:28.879Z,83.63
2018-06-08T22:22:57.455Z,79.80
2018-06-08T22:25:25.984Z,85.67
2018-06-08T22:27:54.510Z,85.90
2018-06-08T22:30:23.310Z,80.43
2018-06-08T22:32:52.756Z,81.10
2018-06-08T22:35:21.269Z,82.27
2018-06-08T22:37:49.919Z,87.73
2018-06-08T22:40:18.410Z,80.20
2018-06-08T22:42:46.974Z,82.30
2018-06-08T22:45:16.578Z,83.00
2018-06-08T22:47:45.399Z,78.50
2018-06-08T22:50:13.920Z,79.70
2018-06-08T22:52:42.980Z,80.33
2018-06-08T22:55:11.538Z,79.53
2018-06-08T22:57:40.082Z,79.70
2018-06-08T23:00:08.726Z,81.00
2018-06-08T23:02:37.238Z,79.13
2018-06-08T23:05:06.106Z,82.27
2018-06-08T23:07:35.047Z,81.90
2018-06-08T23:10:03.715Z,81.03
2018-06-08T23:12:32.702Z,81.30
2018-06-08T23:15:01.885Z,83.23
2018-06-08T23:17:30.385Z,81.13
2018-06-08T23:19:59.367Z,84.13
2018-06-08T23:22:27.877Z,87.80
2018-06-08T23:24:56.349Z,87.80
2018-06-08T23:27:25.246Z,88.93
2018-06-08T23:29:54.081Z,86.83
2018-06-08T23:32:23.314Z,88.57
2018-06-08T23:34:51.841Z,86.40
2018-06-08T23:37:20.426Z,88.00
2018-06-08T23:39:49.018Z,88.83
2018-06-08T23:42:17.817Z,88.63
2018-06-08T23:44:46.325Z,91.43
2018-06-08T23:47:15.194Z,90.27
2018-06-08T23:49:43.702Z,90.53
2018-06-08T23:52:12.232Z,88.27
2018-06-08T23:54:40.737Z,89.90
2018-06-08T23:57:09.282Z,88.30
2018-06-08T23:59:37.782Z,88.70
